Aérodrome :
LOGIN :

S'inscrire | Disclaimer

   EN    FR    IT 

 










Légende :    VFR   VFR Marginal   IFR   IFR Intensif   IFR Très Intensif
Visi : 
Plafond : 
>= 8 km
>= 3000ft
5 à 8 km
1000 à 3000 ft
1500m à 5 km
500 à 1000 ft
800 à 1500m
200 à 500 ft
< 800m
< 200 ft
Symboles :   Orages  Brouillard  Fortes neiges  Fortes précipitations  Vent > 20 kt
SIGMETs :   Divers  Orages  Givrage  Turbulence  Onde Orograph.  Cendres Volcan.







- Altitude de l'aérodrome : 1345 ft
- Code IATA : FRZ


ETHF - Fritzlar

DERNIER METAR :
  • 260847Z 30019G29KT 9999 R30/1800D -SHRA FEW020 BKN035TCU 08/05 Q1016 RESHRA BLU BLU+ TEMPO WHT

METARs EXPIRÉS :
  • 260820Z 25016KT 9999 VCSH FEW025 BKN038TCU 10/03 Q1015 BLU BLU+ TEMPO WHT
  • 260720Z 24011KT 9999 FEW023 SCT038TCU 09/05 Q1014 BLU+BLU+ TEMPO WHT
  • 260620Z 23012KT 9999 BKN031 SCT050 09/03 Q1014 BLU BLU+ TEMPO WHT

TAF TAF ETHF
Valide du 26 à 08h jusqu'au 26 à 17h UTC


260714Z 2608/2617 25012KT 9999 NSW SCT030
TEMPO 2608/2611 27015G25KT 6000 SHRA FEW015 BKN020TCU
TEMPO 2611/2615 27015G25KT 9999 NSW SCT040
Pas de NOTAMs connus pour ce terrain.



MET'MAP, la Météo Aéronautique d'un coup d'oeil ! - Copyright ORBIFLY Décembre 2007 - Disclaimer

ORBIFLY MET'MAP TEAM :

Programmation & Développement : Alexandra Zaïnal
Conception & Développement : Baudouin d'Aumeries
Co-Programmation & Développement : Marc-Olivier Méhu
Soutien technique & logistique : Manuel Goepfert

Contact : metmap@orbifly.com




SOURCES & CREDITS :

   NOAA